TAF and METAR

METAR for Adelaide Airport

YPAD 210630Z 35010KT CAVOK 15/04 Q1019 NOSIG
Report created 21. jul 08:30
wind 10 knots from N (350°) Clear sky Temperature 15° with dewpoint at 4° (Humidity 47.75%) Pressure 1019 hPa no significant weather change expected the next couple of hours

TAF for Adelaide Airport

TAF YPAD 210504Z 2106/2212 33014KT 9999 FEW040 FM210900 03010KT CAVOK FM220200 36018G28KT CAVOK FM220800 03012KT CAVOK
Report created 21. jul 07:04

between 21. jul 08:00 - 22. jul 14:00

wind 14 knots from NNW (330°) visibility > 10km some clouds (~25% cover) at 4000 feet

From 21. jul 11:00

wind 10 knots from NNE (030°) Clear sky

From 22. jul 04:00

wind 18 knots from N (360°) with gusts up to 28 knots Clear sky

From 22. jul 10:00

wind 12 knots from NNE (030°) Clear sky